sensor_id;sensor_type;location;lat;lon;timestamp;pressure;altitude;pressure_sealevel;temperature;humidity
68226;BME280;55045;49.410;11.030;2023-06-14T00:01:43;97593.88;;;15.77;86.01
68226;BME280;55045;49.410;11.030;2023-06-14T00:04:47;97596.75;;;15.74;86.31
68226;BME280;55045;49.410;11.030;2023-06-14T00:07:55;97594.34;;;15.71;87.09
68226;BME280;55045;49.410;11.030;2023-06-14T00:10:58;97591.63;;;15.84;86.10
68226;BME280;55045;49.410;11.030;2023-06-14T00:14:08;97582.72;;;15.64;86.48
68226;BME280;55045;49.410;11.030;2023-06-14T00:17:12;97590.06;;;15.81;86.98
68226;BME280;55045;49.410;11.030;2023-06-14T00:20:18;97596.31;;;15.34;90.01
68226;BME280;55045;49.410;11.030;2023-06-14T00:23:23;97601.44;;;15.47;90.16
68226;BME280;55045;49.410;11.030;2023-06-14T00:26:27;97595.25;;;15.59;88.08
68226;BME280;55045;49.410;11.030;2023-06-14T00:29:30;97591.13;;;15.90;86.91
68226;BME280;55045;49.410;11.030;2023-06-14T00:32:34;97596.72;;;15.97;88.05
68226;BME280;55045;49.410;11.030;2023-06-14T00:35:37;97599.56;;;15.60;87.80
68226;BME280;55045;49.410;11.030;2023-06-14T00:38:41;97594.34;;;16.05;91.07
68226;BME280;55045;49.410;11.030;2023-06-14T00:41:45;97584.09;;;15.46;90.08
68226;BME280;55045;49.410;11.030;2023-06-14T00:44:48;97585.38;;;15.40;89.61
68226;BME280;55045;49.410;11.030;2023-06-14T00:47:53;97584.94;;;15.00;91.92
68226;BME280;55045;49.410;11.030;2023-06-14T00:50:57;97589.28;;;14.88;94.49
68226;BME280;55045;49.410;11.030;2023-06-14T00:54:04;97592.69;;;14.78;95.41
68226;BME280;55045;49.410;11.030;2023-06-14T00:57:08;97588.31;;;14.54;96.62
68226;BME280;55045;49.410;11.030;2023-06-14T01:00:13;97583.66;;;14.47;97.23
68226;BME280;55045;49.410;11.030;2023-06-14T01:03:17;97584.59;;;14.69;96.46
68226;BME280;55045;49.410;11.030;2023-06-14T01:06:31;97583.91;;;14.31;99.84
68226;BME280;55045;49.410;11.030;2023-06-14T01:09:47;97586.41;;;14.80;97.44
68226;BME280;55045;49.410;11.030;2023-06-14T01:12:56;97590.78;;;14.80;96.04
68226;BME280;55045;49.410;11.030;2023-06-14T01:16:02;97587.75;;;14.01;100.00
68226;BME280;55045;49.410;11.030;2023-06-14T01:19:07;97589.66;;;13.87;100.00
68226;BME280;55045;49.410;11.030;2023-06-14T01:22:15;97589.25;;;13.80;100.00
68226;BME280;55045;49.410;11.030;2023-06-14T01:25:20;97600.31;;;13.71;100.00
68226;BME280;55045;49.410;11.030;2023-06-14T01:28:24;97598.53;;;13.46;100.00
68226;BME280;55045;49.410;11.030;2023-06-14T01:31:34;97591.31;;;13.88;100.00
68226;BME280;55045;49.410;11.030;2023-06-14T01:34:43;97598.22;;;13.63;100.00
68226;BME280;55045;49.410;11.030;2023-06-14T01:37:48;97593.03;;;13.50;100.00
68226;BME280;55045;49.410;11.030;2023-06-14T01:40:55;97592.28;;;13.74;100.00
68226;BME280;55045;49.410;11.030;2023-06-14T01:44:01;97587.50;;;14.17;100.00
68226;BME280;55045;49.410;11.030;2023-06-14T01:47:08;97592.41;;;14.22;100.00
68226;BME280;55045;49.410;11.030;2023-06-14T01:50:12;97586.72;;;14.28;99.92
68226;BME280;55045;49.410;11.030;2023-06-14T01:53:16;97600.44;;;14.55;98.71
68226;BME280;55045;49.410;11.030;2023-06-14T01:56:21;97605.28;;;14.36;98.86
68226;BME280;55045;49.410;11.030;2023-06-14T01:59:24;97597.53;;;14.10;100.00
68226;BME280;55045;49.410;11.030;2023-06-14T02:02:27;97603.34;;;13.65;100.00
68226;BME280;55045;49.410;11.030;2023-06-14T02:05:31;97615.63;;;13.75;100.00
68226;BME280;55045;49.410;11.030;2023-06-14T02:08:34;97601.97;;;13.46;100.00
68226;BME280;55045;49.410;11.030;2023-06-14T02:11:39;97608.22;;;13.82;100.00
68226;BME280;55045;49.410;11.030;2023-06-14T02:14:42;97601.13;;;13.84;100.00
68226;BME280;55045;49.410;11.030;2023-06-14T02:17:46;97598.44;;;13.60;100.00
68226;BME280;55045;49.410;11.030;2023-06-14T02:20:51;97600.03;;;13.50;100.00
68226;BME280;55045;49.410;11.030;2023-06-14T02:23:55;97597.13;;;13.15;100.00
68226;BME280;55045;49.410;11.030;2023-06-14T02:26:59;97595.47;;;13.14;100.00
68226;BME280;55045;49.410;11.030;2023-06-14T02:30:03;97593.28;;;13.08;100.00
68226;BME280;55045;49.410;11.030;2023-06-14T02:33:07;97600.69;;;13.14;100.00
68226;BME280;55045;49.410;11.030;2023-06-14T02:36:15;97605.19;;;13.37;100.00
68226;BME280;55045;49.410;11.030;2023-06-14T02:39:18;97602.41;;;13.40;100.00
68226;BME280;55045;49.410;11.030;2023-06-14T02:42:24;97605.66;;;13.04;100.00
68226;BME280;55045;49.410;11.030;2023-06-14T02:45:27;97602.88;;;12.67;100.00
68226;BME280;55045;49.410;11.030;2023-06-14T02:48:30;97607.91;;;12.56;100.00
68226;BME280;55045;49.410;11.030;2023-06-14T02:51:34;97618.13;;;12.32;100.00
68226;BME280;55045;49.410;11.030;2023-06-14T02:54:37;97613.13;;;12.29;100.00
68226;BME280;55045;49.410;11.030;2023-06-14T02:57:41;97616.69;;;12.14;100.00
68226;BME280;55045;49.410;11.030;2023-06-14T03:00:45;97618.91;;;12.20;100.00
68226;BME280;55045;49.410;11.030;2023-06-14T03:03:49;97619.25;;;12.55;100.00
68226;BME280;55045;49.410;11.030;2023-06-14T03:06:53;97612.41;;;12.54;100.00
68226;BME280;55045;49.410;11.030;2023-06-14T03:09:57;97625.50;;;12.11;100.00
68226;BME280;55045;49.410;11.030;2023-06-14T03:13:02;97623.78;;;11.98;100.00
68226;BME280;55045;49.410;11.030;2023-06-14T03:16:06;97615.94;;;12.53;100.00
68226;BME280;55045;49.410;11.030;2023-06-14T03:19:12;97630.75;;;12.65;100.00
68226;BME280;55045;49.410;11.030;2023-06-14T03:22:16;97633.41;;;12.51;100.00
68226;BME280;55045;49.410;11.030;2023-06-14T03:25:19;97640.03;;;12.69;100.00
68226;BME280;55045;49.410;11.030;2023-06-14T03:28:26;97640.81;;;12.84;100.00
68226;BME280;55045;49.410;11.030;2023-06-14T03:34:17;97645.19;;;12.84;100.00
68226;BME280;55045;49.410;11.030;2023-06-14T03:37:21;97651.28;;;12.70;100.00
68226;BME280;55045;49.410;11.030;2023-06-14T03:40:24;97655.56;;;12.71;100.00
68226;BME280;55045;49.410;11.030;2023-06-14T03:43:35;97650.78;;;12.78;100.00
68226;BME280;55045;49.410;11.030;2023-06-14T03:46:38;97656.06;;;12.76;100.00
68226;BME280;55045;49.410;11.030;2023-06-14T03:49:44;97651.97;;;12.59;100.00
68226;BME280;55045;49.410;11.030;2023-06-14T03:52:48;97662.06;;;12.91;100.00
68226;BME280;55045;49.410;11.030;2023-06-14T03:55:54;97661.59;;;12.98;100.00
68226;BME280;55045;49.410;11.030;2023-06-14T03:59:08;97671.38;;;13.35;100.00
68226;BME280;55045;49.410;11.030;2023-06-14T04:02:12;97676.91;;;13.16;100.00
68226;BME280;55045;49.410;11.030;2023-06-14T04:05:19;97677.72;;;13.04;100.00
68226;BME280;55045;49.410;11.030;2023-06-14T04:08:24;97677.59;;;13.19;100.00
68226;BME280;55045;49.410;11.030;2023-06-14T04:11:30;97678.63;;;12.90;100.00
68226;BME280;55045;49.410;11.030;2023-06-14T04:14:33;97686.72;;;13.12;100.00
68226;BME280;55045;49.410;11.030;2023-06-14T04:17:38;97682.50;;;13.24;100.00
68226;BME280;55045;49.410;11.030;2023-06-14T04:20:43;97690.09;;;13.27;100.00
68226;BME280;55045;49.410;11.030;2023-06-14T04:23:46;97685.47;;;13.18;100.00
68226;BME280;55045;49.410;11.030;2023-06-14T04:26:50;97686.16;;;13.47;100.00
68226;BME280;55045;49.410;11.030;2023-06-14T04:29:54;97699.06;;;13.36;100.00
68226;BME280;55045;49.410;11.030;2023-06-14T04:33:02;97684.88;;;13.27;100.00
68226;BME280;55045;49.410;11.030;2023-06-14T04:36:09;97699.75;;;13.52;100.00
68226;BME280;55045;49.410;11.030;2023-06-14T04:39:13;97702.84;;;13.32;100.00
68226;BME280;55045;49.410;11.030;2023-06-14T04:42:17;97700.38;;;13.68;100.00
68226;BME280;55045;49.410;11.030;2023-06-14T04:45:23;97673.88;;;13.36;100.00
68226;BME280;55045;49.410;11.030;2023-06-14T04:48:34;97708.91;;;13.58;100.00
68226;BME280;55045;49.410;11.030;2023-06-14T04:51:38;97704.75;;;13.55;100.00
68226;BME280;55045;49.410;11.030;2023-06-14T04:54:42;97706.41;;;13.43;100.00
68226;BME280;55045;49.410;11.030;2023-06-14T04:57:48;97705.41;;;13.71;100.00
68226;BME280;55045;49.410;11.030;2023-06-14T05:00:55;97714.44;;;13.78;100.00
68226;BME280;55045;49.410;11.030;2023-06-14T05:03:59;97711.53;;;14.08;100.00
68226;BME280;55045;49.410;11.030;2023-06-14T05:07:04;97712.06;;;13.75;100.00
68226;BME280;55045;49.410;11.030;2023-06-14T05:10:08;97718.75;;;13.92;100.00
68226;BME280;55045;49.410;11.030;2023-06-14T05:13:12;97721.53;;;13.89;100.00
68226;BME280;55045;49.410;11.030;2023-06-14T05:16:15;97717.38;;;13.99;100.00
68226;BME280;55045;49.410;11.030;2023-06-14T05:19:21;97721.13;;;13.95;100.00
68226;BME280;55045;49.410;11.030;2023-06-14T05:22:26;97724.56;;;14.08;100.00
68226;BME280;55045;49.410;11.030;2023-06-14T05:25:29;97719.34;;;14.47;100.00
68226;BME280;55045;49.410;11.030;2023-06-14T05:28:32;97729.78;;;14.21;100.00
68226;BME280;55045;49.410;11.030;2023-06-14T05:31:35;97724.84;;;14.42;100.00
68226;BME280;55045;49.410;11.030;2023-06-14T05:34:39;97723.69;;;14.72;100.00
68226;BME280;55045;49.410;11.030;2023-06-14T05:37:43;97725.53;;;14.69;100.00
68226;BME280;55045;49.410;11.030;2023-06-14T05:40:47;97727.44;;;14.67;100.00
68226;BME280;55045;49.410;11.030;2023-06-14T05:43:53;97728.00;;;14.84;100.00
68226;BME280;55045;49.410;11.030;2023-06-14T05:46:57;97734.00;;;14.97;100.00
68226;BME280;55045;49.410;11.030;2023-06-14T05:50:00;97729.78;;;14.83;100.00
68226;BME280;55045;49.410;11.030;2023-06-14T05:53:05;97729.09;;;14.68;100.00
68226;BME280;55045;49.410;11.030;2023-06-14T05:56:09;97732.09;;;15.47;100.00
68226;BME280;55045;49.410;11.030;2023-06-14T05:59:12;97734.34;;;15.64;100.00
68226;BME280;55045;49.410;11.030;2023-06-14T06:02:15;97740.81;;;15.59;100.00
68226;BME280;55045;49.410;11.030;2023-06-14T06:05:18;97747.00;;;16.04;100.00
68226;BME280;55045;49.410;11.030;2023-06-14T06:08:23;97747.00;;;16.04;100.00
68226;BME280;55045;49.410;11.030;2023-06-14T06:11:26;97739.53;;;16.22;100.00
68226;BME280;55045;49.410;11.030;2023-06-14T06:14:42;97741.78;;;16.49;100.00
68226;BME280;55045;49.410;11.030;2023-06-14T06:17:46;97743.91;;;16.10;100.00
68226;BME280;55045;49.410;11.030;2023-06-14T06:20:57;97745.00;;;16.41;100.00
68226;BME280;55045;49.410;11.030;2023-06-14T06:24:02;97739.16;;;16.82;100.00
68226;BME280;55045;49.410;11.030;2023-06-14T06:27:07;97743.94;;;16.77;99.88
68226;BME280;55045;49.410;11.030;2023-06-14T06:30:12;97751.19;;;16.74;98.08
68226;BME280;55045;49.410;11.030;2023-06-14T06:33:15;97758.09;;;16.97;95.77
68226;BME280;55045;49.410;11.030;2023-06-14T06:36:19;97759.84;;;17.08;96.90
68226;BME280;55045;49.410;11.030;2023-06-14T06:39:25;97758.34;;;17.58;94.19
68226;BME280;55045;49.410;11.030;2023-06-14T06:42:28;97772.06;;;17.18;94.74
68226;BME280;55045;49.410;11.030;2023-06-14T06:45:33;97766.19;;;17.69;92.56
68226;BME280;55045;49.410;11.030;2023-06-14T06:48:37;97771.38;;;18.01;92.78
68226;BME280;55045;49.410;11.030;2023-06-14T06:51:41;97760.56;;;17.74;93.86
68226;BME280;55045;49.410;11.030;2023-06-14T06:54:46;97764.16;;;17.62;95.68
68226;BME280;55045;49.410;11.030;2023-06-14T06:57:51;97777.53;;;18.11;92.24
68226;BME280;55045;49.410;11.030;2023-06-14T07:00:56;97771.81;;;17.85;91.27
68226;BME280;55045;49.410;11.030;2023-06-14T07:03:59;97768.16;;;18.39;90.66
68226;BME280;55045;49.410;11.030;2023-06-14T07:07:03;97761.69;;;18.53;90.29
68226;BME280;55045;49.410;11.030;2023-06-14T07:10:08;97769.88;;;18.90;89.10
68226;BME280;55045;49.410;11.030;2023-06-14T07:13:11;97767.00;;;18.63;87.85
68226;BME280;55045;49.410;11.030;2023-06-14T07:16:15;97763.75;;;18.90;87.89
68226;BME280;55045;49.410;11.030;2023-06-14T07:19:19;97763.72;;;19.49;86.75
68226;BME280;55045;49.410;11.030;2023-06-14T07:22:22;97767.72;;;19.24;85.73
68226;BME280;55045;49.410;11.030;2023-06-14T07:25:27;97766.78;;;18.76;86.26
68226;BME280;55045;49.410;11.030;2023-06-14T07:28:30;97770.63;;;19.41;84.59
68226;BME280;55045;49.410;11.030;2023-06-14T07:31:34;97766.81;;;19.83;82.78
68226;BME280;55045;49.410;11.030;2023-06-14T07:34:37;97764.63;;;19.10;84.38
68226;BME280;55045;49.410;11.030;2023-06-14T07:37:41;97769.09;;;19.28;82.16
68226;BME280;55045;49.410;11.030;2023-06-14T07:40:45;97771.44;;;20.09;79.61
68226;BME280;55045;49.410;11.030;2023-06-14T07:43:48;97770.97;;;20.33;78.83
68226;BME280;55045;49.410;11.030;2023-06-14T07:46:52;97783.63;;;20.10;78.29
68226;BME280;55045;49.410;11.030;2023-06-14T07:49:55;97774.63;;;20.12;76.66
68226;BME280;55045;49.410;11.030;2023-06-14T07:52:59;97772.22;;;19.72;79.23
68226;BME280;55045;49.410;11.030;2023-06-14T07:56:03;97776.59;;;20.01;76.90
68226;BME280;55045;49.410;11.030;2023-06-14T07:59:08;97773.06;;;20.29;75.67
68226;BME280;55045;49.410;11.030;2023-06-14T08:02:11;97774.50;;;20.61;75.44
68226;BME280;55045;49.410;11.030;2023-06-14T08:05:15;97771.25;;;21.32;74.46
68226;BME280;55045;49.410;11.030;2023-06-14T08:08:19;97769.63;;;20.93;74.91
68226;BME280;55045;49.410;11.030;2023-06-14T08:11:23;97785.66;;;20.55;72.07
68226;BME280;55045;49.410;11.030;2023-06-14T08:14:27;97773.97;;;20.57;72.81
68226;BME280;55045;49.410;11.030;2023-06-14T08:17:31;97789.94;;;21.11;71.08
68226;BME280;55045;49.410;11.030;2023-06-14T08:20:34;97787.34;;;20.27;73.24
68226;BME280;55045;49.410;11.030;2023-06-14T08:23:38;97781.47;;;19.96;73.61
68226;BME280;55045;49.410;11.030;2023-06-14T08:26:43;97784.78;;;20.64;70.37
68226;BME280;55045;49.410;11.030;2023-06-14T08:29:46;97789.72;;;21.22;68.98
68226;BME280;55045;49.410;11.030;2023-06-14T08:32:49;97793.34;;;21.21;66.09
68226;BME280;55045;49.410;11.030;2023-06-14T08:36:11;97781.66;;;21.23;66.45
68226;BME280;55045;49.410;11.030;2023-06-14T08:39:15;97783.63;;;21.67;61.98
68226;BME280;55045;49.410;11.030;2023-06-14T08:42:21;97785.94;;;21.07;63.79
68226;BME280;55045;49.410;11.030;2023-06-14T08:45:33;97785.81;;;21.36;60.44
68226;BME280;55045;49.410;11.030;2023-06-14T08:48:37;97783.69;;;20.57;64.78
68226;BME280;55045;49.410;11.030;2023-06-14T08:51:43;97788.91;;;20.10;66.35
68226;BME280;55045;49.410;11.030;2023-06-14T08:54:46;97789.44;;;20.70;65.23
68226;BME280;55045;49.410;11.030;2023-06-14T08:57:53;97771.88;;;21.16;64.80
68226;BME280;55045;49.410;11.030;2023-06-14T09:00:57;97794.53;;;21.36;62.44
68226;BME280;55045;49.410;11.030;2023-06-14T09:04:00;97788.13;;;21.74;61.93
68226;BME280;55045;49.410;11.030;2023-06-14T09:07:05;97784.97;;;21.71;60.44
68226;BME280;55045;49.410;11.030;2023-06-14T09:10:11;97781.03;;;21.75;57.19
68226;BME280;55045;49.410;11.030;2023-06-14T09:13:16;97791.91;;;21.36;57.10
68226;BME280;55045;49.410;11.030;2023-06-14T09:16:19;97782.34;;;21.08;60.23
68226;BME280;55045;49.410;11.030;2023-06-14T09:19:23;97790.66;;;20.38;64.21
68226;BME280;55045;49.410;11.030;2023-06-14T09:22:29;97733.53;;;20.39;62.95
68226;BME280;55045;49.410;11.030;2023-06-14T09:25:32;97798.84;;;22.08;59.74
68226;BME280;55045;49.410;11.030;2023-06-14T09:28:43;97791.22;;;21.88;58.79
68226;BME280;55045;49.410;11.030;2023-06-14T09:34:17;97793.47;;;21.02;65.50
68226;BME280;55045;49.410;11.030;2023-06-14T09:37:28;97798.19;;;20.24;64.32
68226;BME280;55045;49.410;11.030;2023-06-14T09:40:34;97793.44;;;20.47;63.52
68226;BME280;55045;49.410;11.030;2023-06-14T09:43:37;97808.63;;;20.62;63.60
68226;BME280;55045;49.410;11.030;2023-06-14T09:46:41;97803.78;;;20.58;62.96
68226;BME280;55045;49.410;11.030;2023-06-14T09:49:46;97810.72;;;20.96;62.30
68226;BME280;55045;49.410;11.030;2023-06-14T09:52:52;97804.50;;;20.87;62.74
68226;BME280;55045;49.410;11.030;2023-06-14T09:55:57;97805.63;;;20.85;62.93
68226;BME280;55045;49.410;11.030;2023-06-14T09:59:09;97803.13;;;20.83;63.97
68226;BME280;55045;49.410;11.030;2023-06-14T10:02:20;97802.47;;;21.36;64.22
68226;BME280;55045;49.410;11.030;2023-06-14T10:05:27;97804.69;;;20.76;63.47
68226;BME280;55045;49.410;11.030;2023-06-14T10:08:32;97789.84;;;21.03;62.84
68226;BME280;55045;49.410;11.030;2023-06-14T10:11:40;97804.19;;;20.63;65.46
68226;BME280;55045;49.410;11.030;2023-06-14T10:14:48;97798.13;;;20.43;61.63
68226;BME280;55045;49.410;11.030;2023-06-14T10:17:56;97799.00;;;20.71;60.50
68226;BME280;55045;49.410;11.030;2023-06-14T10:21:08;97803.59;;;20.69;59.92
68226;BME280;55045;49.410;11.030;2023-06-14T10:24:16;97776.34;;;20.41;60.04
68226;BME280;55045;49.410;11.030;2023-06-14T10:27:20;97798.75;;;21.29;54.77
68226;BME280;55045;49.410;11.030;2023-06-14T10:30:26;97803.75;;;21.68;54.94
68226;BME280;55045;49.410;11.030;2023-06-14T10:33:29;97801.38;;;22.00;55.01
68226;BME280;55045;49.410;11.030;2023-06-14T10:36:34;97796.44;;;21.79;54.93
68226;BME280;55045;49.410;11.030;2023-06-14T10:39:38;97797.03;;;21.91;56.62
68226;BME280;55045;49.410;11.030;2023-06-14T10:42:51;97798.22;;;21.43;57.64
68226;BME280;55045;49.410;11.030;2023-06-14T10:46:17;97795.16;;;21.48;55.47
68226;BME280;55045;49.410;11.030;2023-06-14T10:49:37;97796.03;;;21.74;56.94
68226;BME280;55045;49.410;11.030;2023-06-14T10:52:45;97807.16;;;21.78;55.77
68226;BME280;55045;49.410;11.030;2023-06-14T10:55:48;97798.22;;;21.43;55.63
68226;BME280;55045;49.410;11.030;2023-06-14T10:58:52;97801.09;;;21.22;54.78
68226;BME280;55045;49.410;11.030;2023-06-14T11:01:58;97799.81;;;21.54;56.23
68226;BME280;55045;49.410;11.030;2023-06-14T11:05:08;97794.00;;;21.50;54.74
68226;BME280;55045;49.410;11.030;2023-06-14T11:08:30;97800.88;;;21.61;55.46
68226;BME280;55045;49.410;11.030;2023-06-14T11:11:42;97809.53;;;21.08;55.72
68226;BME280;55045;49.410;11.030;2023-06-14T11:14:46;97804.25;;;21.53;55.61
68226;BME280;55045;49.410;11.030;2023-06-14T11:17:50;97793.78;;;21.79;53.88
68226;BME280;55045;49.410;11.030;2023-06-14T11:20:55;97795.88;;;21.13;55.35
68226;BME280;55045;49.410;11.030;2023-06-14T11:24:00;97795.91;;;21.40;56.28
68226;BME280;55045;49.410;11.030;2023-06-14T11:27:04;97796.56;;;20.97;54.34
68226;BME280;55045;49.410;11.030;2023-06-14T11:30:12;97796.75;;;21.59;54.49
68226;BME280;55045;49.410;11.030;2023-06-14T11:33:17;97785.88;;;21.44;54.88
68226;BME280;55045;49.410;11.030;2023-06-14T11:36:21;97764.97;;;22.30;53.03
68226;BME280;55045;49.410;11.030;2023-06-14T11:39:26;97793.72;;;22.33;51.71
68226;BME280;55045;49.410;11.030;2023-06-14T11:42:30;97800.31;;;23.47;49.58
68226;BME280;55045;49.410;11.030;2023-06-14T11:45:33;97790.66;;;22.20;52.05
68226;BME280;55045;49.410;11.030;2023-06-14T11:48:37;97789.63;;;22.12;53.08
68226;BME280;55045;49.410;11.030;2023-06-14T11:51:42;97794.38;;;22.09;52.81
68226;BME280;55045;49.410;11.030;2023-06-14T11:54:48;97791.59;;;21.75;54.37
68226;BME280;55045;49.410;11.030;2023-06-14T11:57:53;97790.03;;;22.26;56.54
68226;BME280;55045;49.410;11.030;2023-06-14T12:00:57;97786.22;;;21.84;56.87
68226;BME280;55045;49.410;11.030;2023-06-14T12:04:01;97787.78;;;21.95;56.83
68226;BME280;55045;49.410;11.030;2023-06-14T12:07:09;97776.13;;;21.44;56.73
68226;BME280;55045;49.410;11.030;2023-06-14T12:10:16;97779.84;;;21.87;55.43
68226;BME280;55045;49.410;11.030;2023-06-14T12:13:19;97784.34;;;22.38;53.03
68226;BME280;55045;49.410;11.030;2023-06-14T12:16:30;97781.56;;;21.43;55.32
68226;BME280;55045;49.410;11.030;2023-06-14T12:19:41;97765.66;;;21.88;53.89
68226;BME280;55045;49.410;11.030;2023-06-14T12:22:50;97783.16;;;22.33;55.21
68226;BME280;55045;49.410;11.030;2023-06-14T12:25:59;97758.97;;;21.58;52.98
68226;BME280;55045;49.410;11.030;2023-06-14T12:29:08;97769.53;;;22.02;52.33
68226;BME280;55045;49.410;11.030;2023-06-14T12:32:12;97775.91;;;21.91;51.16
68226;BME280;55045;49.410;11.030;2023-06-14T12:35:15;97775.75;;;22.10;51.07
68226;BME280;55045;49.410;11.030;2023-06-14T12:38:19;97771.03;;;21.78;49.53
68226;BME280;55045;49.410;11.030;2023-06-14T12:41:24;97772.63;;;22.15;49.07
68226;BME280;55045;49.410;11.030;2023-06-14T12:44:28;97776.25;;;21.96;51.56
68226;BME280;55045;49.410;11.030;2023-06-14T12:47:32;97775.44;;;22.13;50.46
68226;BME280;55045;49.410;11.030;2023-06-14T12:50:35;97780.91;;;21.59;50.64
68226;BME280;55045;49.410;11.030;2023-06-14T12:53:38;97779.44;;;21.82;50.28
68226;BME280;55045;49.410;11.030;2023-06-14T12:56:43;97776.56;;;22.37;51.09
68226;BME280;55045;49.410;11.030;2023-06-14T12:59:46;97790.94;;;22.17;50.61
68226;BME280;55045;49.410;11.030;2023-06-14T13:02:50;97786.28;;;21.93;49.21
68226;BME280;55045;49.410;11.030;2023-06-14T13:05:54;97789.69;;;21.85;48.23
68226;BME280;55045;49.410;11.030;2023-06-14T13:08:58;97790.84;;;21.47;46.84
68226;BME280;55045;49.410;11.030;2023-06-14T13:12:03;97779.53;;;21.54;47.89
68226;BME280;55045;49.410;11.030;2023-06-14T13:15:07;97788.63;;;22.13;48.46
68226;BME280;55045;49.410;11.030;2023-06-14T13:18:10;97784.50;;;21.40;46.04
68226;BME280;55045;49.410;11.030;2023-06-14T13:21:15;97779.75;;;21.61;45.55
68226;BME280;55045;49.410;11.030;2023-06-14T13:24:18;97712.59;;;21.55;47.34
68226;BME280;55045;49.410;11.030;2023-06-14T13:27:23;97789.53;;;22.04;46.90
68226;BME280;55045;49.410;11.030;2023-06-14T13:30:26;97785.53;;;22.78;48.54
68226;BME280;55045;49.410;11.030;2023-06-14T13:33:31;97779.06;;;22.38;46.25
68226;BME280;55045;49.410;11.030;2023-06-14T13:36:35;97730.41;;;22.23;47.58
68226;BME280;55045;49.410;11.030;2023-06-14T13:39:38;97775.28;;;23.17;50.05
68226;BME280;55045;49.410;11.030;2023-06-14T13:42:43;97770.78;;;22.07;47.04
68226;BME280;55045;49.410;11.030;2023-06-14T13:45:46;97773.09;;;22.10;47.29
68226;BME280;55045;49.410;11.030;2023-06-14T13:48:49;97766.47;;;22.32;44.28
68226;BME280;55045;49.410;11.030;2023-06-14T13:51:53;97770.84;;;21.98;44.39
68226;BME280;55045;49.410;11.030;2023-06-14T13:54:56;97770.25;;;22.30;44.23
68226;BME280;55045;49.410;11.030;2023-06-14T13:58:01;97754.13;;;22.41;45.51
68226;BME280;55045;49.410;11.030;2023-06-14T14:01:04;97765.75;;;22.56;46.78
68226;BME280;55045;49.410;11.030;2023-06-14T14:04:08;97757.53;;;22.59;47.95
68226;BME280;55045;49.410;11.030;2023-06-14T14:07:11;97761.78;;;22.52;48.33
68226;BME280;55045;49.410;11.030;2023-06-14T14:10:14;97763.81;;;22.58;48.06
68226;BME280;55045;49.410;11.030;2023-06-14T14:13:19;97764.75;;;22.05;47.93
68226;BME280;55045;49.410;11.030;2023-06-14T14:16:23;97763.94;;;22.23;47.79
68226;BME280;55045;49.410;11.030;2023-06-14T14:19:27;97768.06;;;22.51;47.39
68226;BME280;55045;49.410;11.030;2023-06-14T14:22:30;97767.91;;;22.87;46.54
68226;BME280;55045;49.410;11.030;2023-06-14T14:25:33;97765.38;;;22.43;46.66
68226;BME280;55045;49.410;11.030;2023-06-14T14:28:38;97764.81;;;22.65;46.81
68226;BME280;55045;49.410;11.030;2023-06-14T14:31:42;97758.69;;;22.65;46.47
68226;BME280;55045;49.410;11.030;2023-06-14T14:34:45;97764.78;;;22.57;45.31
68226;BME280;55045;49.410;11.030;2023-06-14T14:37:48;97770.25;;;22.90;44.71
68226;BME280;55045;49.410;11.030;2023-06-14T14:40:51;97765.16;;;23.05;45.61
68226;BME280;55045;49.410;11.030;2023-06-14T14:43:57;97767.50;;;22.74;45.07
68226;BME280;55045;49.410;11.030;2023-06-14T14:47:01;97760.91;;;22.78;46.20
68226;BME280;55045;49.410;11.030;2023-06-14T14:50:05;97767.03;;;22.44;45.63
68226;BME280;55045;49.410;11.030;2023-06-14T14:53:10;97760.72;;;23.05;46.98
68226;BME280;55045;49.410;11.030;2023-06-14T14:56:14;97758.97;;;22.20;45.10
68226;BME280;55045;49.410;11.030;2023-06-14T14:59:18;97766.28;;;22.60;45.63
68226;BME280;55045;49.410;11.030;2023-06-14T15:02:24;97758.53;;;22.58;47.78
68226;BME280;55045;49.410;11.030;2023-06-14T15:05:27;97767.00;;;22.70;46.50
68226;BME280;55045;49.410;11.030;2023-06-14T15:08:30;97755.47;;;22.45;46.39
68226;BME280;55045;49.410;11.030;2023-06-14T15:11:34;97753.34;;;22.49;47.60
68226;BME280;55045;49.410;11.030;2023-06-14T15:14:38;97752.72;;;22.55;47.10
68226;BME280;55045;49.410;11.030;2023-06-14T15:17:42;97752.84;;;22.19;45.58
68226;BME280;55045;49.410;11.030;2023-06-14T15:20:45;97757.56;;;22.67;47.54
68226;BME280;55045;49.410;11.030;2023-06-14T15:23:49;97759.25;;;22.42;47.16
68226;BME280;55045;49.410;11.030;2023-06-14T15:26:53;97761.78;;;22.86;44.74
68226;BME280;55045;49.410;11.030;2023-06-14T15:29:58;97763.19;;;23.07;46.28
68226;BME280;55045;49.410;11.030;2023-06-14T15:34:17;97761.25;;;22.83;43.91
68226;BME280;55045;49.410;11.030;2023-06-14T15:37:20;97763.34;;;23.05;43.93
68226;BME280;55045;49.410;11.030;2023-06-14T15:40:23;97762.59;;;22.79;43.81
68226;BME280;55045;49.410;11.030;2023-06-14T15:43:27;97767.09;;;22.86;43.47
68226;BME280;55045;49.410;11.030;2023-06-14T15:46:31;97755.06;;;22.92;43.43
68226;BME280;55045;49.410;11.030;2023-06-14T15:49:35;97680.00;;;22.93;44.10
68226;BME280;55045;49.410;11.030;2023-06-14T15:52:38;97751.75;;;22.98;43.83
68226;BME280;55045;49.410;11.030;2023-06-14T15:55:42;97759.94;;;22.79;45.66
68226;BME280;55045;49.410;11.030;2023-06-14T15:58:45;97746.88;;;23.19;44.53
68226;BME280;55045;49.410;11.030;2023-06-14T16:01:48;97749.66;;;22.76;45.04
68226;BME280;55045;49.410;11.030;2023-06-14T16:04:53;97755.22;;;22.98;43.90
68226;BME280;55045;49.410;11.030;2023-06-14T16:07:57;97758.06;;;22.37;44.21
68226;BME280;55045;49.410;11.030;2023-06-14T16:11:00;97758.66;;;22.49;43.03